x

Southeast Bering Sea -205nm Wnw Of Dutch Harbor, Ak (46073) Wave Buoy

3:50 - Mon 23rd Jan 2017 All times are UTC.

  • Sig Wave height 21.0ft
  • Swell Direction
  • Peak Period 13s
  • Average Period 9s
  • Wind
    27mph, 34mph gusts
  • Sea Temp 40°f
  • Sea Pressure 963.6mb

More Historic Weather Station data

Upgrade to MSW Pro to gain access to the past 30 days of data for over 8000 Wavebouys and Weather Stations around the globe.

Join Pro

Comparision Forecast

View Surf forecast
   
Mo 01/23 3:50 21ft 13s 9s 27 34 mph 963.6mb 40f
2:50 20.5ft 13s 9s 22 29 mph 962.8mb 54f
12:50 20ft 14s  -  13 20 mph 961.6mb 68f
11:50 20ft 14s 9s 18 25 mph 961.1mb 83f
10:50 23.5ft 14s 9s 20 27 mph 960.6mb 79f
9:50 25.5ft 13s 9s 29 36 mph 959.9mb 78f
8:50 24.5ft 14s 10s 25 31 mph 959.6mb 63f
7:50 26ft 11s 10s 31 40 mph 959.4mb 61f
6:50 24ft 12s 9s 38 49 mph 959mb 51f
5:50 29.5ft 14s 10s 43 54 mph 959mb 38f
4:50 34ft 14s 11s 45 56 mph 958.8mb 38f
3:50 33ft 13s 11s 45 58 mph 959.4mb 38f
2:50 33ft 13s 11s 45 67 mph 960.1mb 38f
1:50 32ft 13s 10s 49 60 mph 961mb 38f
12:50 28.5ft 13s 10s 47 60 mph 963mb 38f
So 01/22 11:50 29ft 13s 10s 49 65 mph 964.9mb 38f
10:50 28.5ft 14s 10s 51 65 mph 966.9mb 38f
9:50 27ft 12s 10s 49 60 mph 969.5mb 38f
8:50 27ft 11s 9s 51 63 mph 972mb 38f
7:50 23.5ft 11s 9s 49 63 mph 974.6mb 38f
6:50 22.5ft 11s 9s 45 58 mph 977.2mb 38f
5:50 18.5ft 11s 8s 43 51 mph 980.4mb 38f
4:50 19.5ft 10s 8s 45 56 mph 982.7mb 38f
3:50 18.5ft 9s 8s 45 56 mph 985.8mb 38f
2:50 15.5ft 9s 7s 43 51 mph 987.7mb 38f
1:50 12.5ft 8s 6s 40 51 mph 990.9mb 38f
12:50 9.5ft 8s 6s 36 47 mph 993.3mb 38f
11:50 9ft 7s 6s 36 43 mph 996.1mb 38f
10:50 7.5ft 6s 5s 31 38 mph 998.7mb 38f
9:50 6.5ft 6s 5s 31 38 mph 1000.8mb 38f
8:50 5.5ft 5s 5s 29 36 mph 1002.6mb 38f
7:50 4.5ft 5s 4s 27 34 mph 1004.2mb 38f
6:50 4ft 4s 4s 22 29 mph 1005.8mb 38f
5:50 3.5ft 7s 4s 22 27 mph 1006.8mb 38f
4:50 3.5ft 7s 5s 18 25 mph 1008.2mb 38f
3:50 3.5ft 8s 5s 16 20 mph 1009.7mb 38f
2:50 3.5ft 7s 5s 9 13 mph 1009.9mb 38f
1:50 3.5ft 8s 6s 11 16 mph 1010.8mb 38f
12:50 4ft 6s 6s 9 11 mph 1012.2mb 38f
Sa 01/21 11:50 4ft 7s 6s 4 9 mph 1012.5mb 38f
10:50 4.5ft 8s 6s 9 11 mph 1013.1mb 38f
9:50 4.5ft 7s 6s  -  4 mph 1014.2mb 38f
8:50 4.5ft 8s 6s 4 7 mph 1014.4mb 38f
7:50 4.5ft 8s 6s  -  mph 1015mb 38f
6:50 5ft 7s 6s 4 9 mph 1014.8mb 38f
5:50 5ft 8s 6s 4 9 mph 1015.1mb 38f
4:50 4.5ft 8s 6s 7 11 mph 1015.3mb 38f
3:50 5.5ft 8s 6s 4 9 mph 1015.5mb 38f
2:50 5.5ft 8s 6s  -  7 mph 1015.8mb 38f
1:50 6ft 8s 6s 4 9 mph 1015.8mb 38f
12:50 6ft 8s 6s 7 13 mph 1015.8mb 38f
11:50 7ft 8s 6s 9 13 mph 1016mb 38f
10:50 7ft 8s 6s 13 18 mph 1016mb 38f
9:50 7ft 8s 6s 11 16 mph 1016.3mb 38f
8:50 6.5ft 8s 6s 16 20 mph 1015.8mb 39f
7:50 7ft 9s 6s 16 22 mph 1016.1mb 39f
6:50 7ft 9s 6s 16 20 mph 1015.7mb 39f
5:50 8ft 9s 7s 16 20 mph 1016mb 39f
4:50 7.5ft 9s 6s 9 13 mph 1015.9mb 39f
3:50 7ft 8s 6s 22 27 mph 1015.4mb 39f
2:50 7.5ft 9s 7s 18 25 mph 1015.2mb 39f
1:50 9ft 9s 7s 18 22 mph 1014.4mb 39f
12:50 8ft 9s 7s 16 22 mph 1014mb 38f
Fr 01/20 11:50 9ft 9s 7s 13 18 mph 1013.8mb 38f
10:50 7.5ft 9s 6s 4 11 mph 1014mb 38f
9:50 8.5ft 9s 7s 13 18 mph 1013.3mb 38f
8:50 8ft 10s 6s 16 20 mph 1012.7mb 39f
7:50 9ft 10s 7s 20 29 mph 1012.1mb 39f
6:50 8.5ft 10s 6s 20 25 mph 1011.4mb 39f
5:50 9ft 10s 6s 20 27 mph 1010.5mb 39f
4:50 9.5ft 10s 7s 16 25 mph 1010mb 39f
3:50 9ft 11s 7s 18 25 mph 1009.3mb 39f
2:50 10ft 11s 7s 20 25 mph 1008.5mb 39f
1:50 11ft 11s 7s 20 25 mph 1008mb 39f
12:50 11ft 11s 7s 20 25 mph 1007.5mb 39f
11:50 11.5ft 11s 7s 25 31 mph 1006.8mb 39f
10:50 12.5ft 11s 8s 20 25 mph 1006.4mb 39f
9:50 12ft 11s 8s 18 29 mph 1005.2mb 39f
8:50 13ft 11s 8s 22 31 mph 1004.4mb 39f
7:50 13ft 11s 8s 20 27 mph 1003.8mb 39f
6:50 13.5ft 11s 8s 18 25 mph 1002.7mb 39f
5:50 13.5ft 11s 8s 25 29 mph 1001.7mb 39f
4:50 15ft 11s 8s 25 31 mph 1000.8mb 39f
3:50 13.5ft 12s 8s 29 34 mph 999.6mb 39f
2:50 13ft 10s 8s 31 40 mph 998.6mb 39f
1:50 12.5ft 11s 7s 27 34 mph 997.6mb 39f
12:50 13ft 12s 8s 29 38 mph 996.5mb 39f
Do 01/19 11:50 13.5ft 12s 8s 22 34 mph 996mb 39f
10:50 13.5ft 12s 8s 27 31 mph 995.4mb 39f
9:50 15ft 12s 8s 27 36 mph 994.7mb 39f
8:50 15ft 12s 8s 22 27 mph 993.9mb 39f
7:50 13.5ft 12s 8s 25 34 mph 993mb 39f
6:50 15.5ft 12s 8s 25 31 mph 991.9mb 39f
5:50 14.5ft 11s 8s 27 34 mph 991mb 39f